createdAt,value
2019-03-10T00:02:57.561Z,10.84
2019-03-10T00:06:20.975Z,10.91
2019-03-10T00:09:44.404Z,11.06
2019-03-10T00:13:08.051Z,11.00
2019-03-10T00:16:31.729Z,10.93
2019-03-10T00:19:55.721Z,10.89
2019-03-10T00:23:19.634Z,10.57
2019-03-10T00:26:43.189Z,10.68
2019-03-10T00:30:07.106Z,10.78
2019-03-10T00:33:31.648Z,10.99
2019-03-10T00:36:54.852Z,10.73
2019-03-10T00:41:15.669Z,10.90
2019-03-10T00:45:46.725Z,10.78
2019-03-10T00:53:38.098Z,10.80
2019-03-10T01:01:28.864Z,10.73
2019-03-10T01:04:52.513Z,10.93
2019-03-10T01:08:15.725Z,11.11
2019-03-10T01:11:39.315Z,10.83
2019-03-10T01:15:02.731Z,10.59
2019-03-10T01:18:26.428Z,10.91
2019-03-10T01:21:50.172Z,10.64
2019-03-10T01:25:13.737Z,10.64
2019-03-10T01:28:36.966Z,11.11
2019-03-10T01:32:41.479Z,11.21
2019-03-10T01:36:13.621Z,11.20
2019-03-10T01:39:36.802Z,11.30
2019-03-10T01:43:00.076Z,11.19
2019-03-10T01:46:23.235Z,10.88
2019-03-10T01:49:46.366Z,10.97
2019-03-10T01:53:09.509Z,10.93
2019-03-10T01:56:32.649Z,10.94
2019-03-10T01:59:56.062Z,10.80
2019-03-10T02:03:19.404Z,11.22
2019-03-10T02:06:42.521Z,10.84
2019-03-10T02:10:06.949Z,10.89
2019-03-10T02:13:30.052Z,10.48
2019-03-10T02:16:53.605Z,10.87
2019-03-10T02:20:17.516Z,10.89
2019-03-10T02:23:40.752Z,11.00
2019-03-10T02:27:03.834Z,10.92
2019-03-10T02:30:27.120Z,10.59
2019-03-10T02:33:50.429Z,10.81
2019-03-10T02:37:13.555Z,10.89
2019-03-10T02:40:36.900Z,10.80
2019-03-10T02:44:01.034Z,10.69
2019-03-10T02:47:24.150Z,10.65
2019-03-10T02:50:47.218Z,10.59
2019-03-10T02:54:10.302Z,10.68
2019-03-10T02:57:33.549Z,10.50
2019-03-10T03:00:56.674Z,10.45
2019-03-10T03:04:20.207Z,10.10
2019-03-10T03:07:43.497Z,10.32
2019-03-10T03:11:06.651Z,10.12
2019-03-10T03:14:30.206Z,9.68
2019-03-10T03:17:53.490Z,10.14
2019-03-10T03:21:16.670Z,10.03
2019-03-10T03:24:39.756Z,10.06
2019-03-10T03:28:02.984Z,10.03
2019-03-10T03:31:29.137Z,9.87
2019-03-10T03:34:52.246Z,9.79
2019-03-10T03:38:17.957Z,9.67
2019-03-10T03:41:41.126Z,9.70
2019-03-10T03:45:04.754Z,9.34
2019-03-10T03:48:28.029Z,9.36
2019-03-10T03:51:51.267Z,9.05
2019-03-10T03:55:14.406Z,9.21
2019-03-10T03:58:37.535Z,9.15
2019-03-10T04:02:06.513Z,8.80
2019-03-10T04:05:29.594Z,8.96
2019-03-10T04:08:52.827Z,9.22
2019-03-10T04:12:16.088Z,9.28
2019-03-10T04:15:39.298Z,9.22
2019-03-10T04:19:02.458Z,9.30
2019-03-10T04:22:25.955Z,9.37
2019-03-10T04:25:49.043Z,9.53
2019-03-10T04:29:12.484Z,9.43
2019-03-10T04:32:35.547Z,9.51
2019-03-10T04:35:58.640Z,9.56
2019-03-10T04:39:21.731Z,9.60
2019-03-10T04:42:44.956Z,9.59
2019-03-10T04:46:08.061Z,9.51
2019-03-10T04:49:32.211Z,9.44
2019-03-10T04:52:55.291Z,9.38
2019-03-10T04:56:38.076Z,9.49
2019-03-10T05:00:01.313Z,9.24
2019-03-10T05:03:24.586Z,9.35
2019-03-10T05:06:47.671Z,9.57
2019-03-10T05:10:10.787Z,9.67
2019-03-10T05:13:33.974Z,9.54
2019-03-10T05:16:57.088Z,9.46
2019-03-10T05:20:20.205Z,9.58
2019-03-10T05:23:44.406Z,9.37
2019-03-10T05:27:07.554Z,9.26
2019-03-10T05:30:30.640Z,9.40
2019-03-10T05:33:54.049Z,9.45
2019-03-10T05:37:17.148Z,9.43
2019-03-10T05:40:40.791Z,9.38
2019-03-10T05:44:05.199Z,9.37
2019-03-10T05:47:28.351Z,9.50
2019-03-10T05:50:51.618Z,9.18
2019-03-10T05:54:14.693Z,9.23
2019-03-10T05:57:37.897Z,9.23
2019-03-10T06:01:00.974Z,9.13
2019-03-10T06:04:24.358Z,9.22
2019-03-10T06:07:47.476Z,8.97
2019-03-10T06:11:10.688Z,9.02
2019-03-10T06:14:34.066Z,9.16
2019-03-10T06:17:57.170Z,8.80
2019-03-10T06:21:20.265Z,8.52
2019-03-10T06:24:43.351Z,8.76
2019-03-10T06:28:06.742Z,8.91
2019-03-10T06:31:29.963Z,8.71
2019-03-10T06:34:53.182Z,8.86
2019-03-10T06:38:16.425Z,8.74
2019-03-10T06:41:39.535Z,8.88
2019-03-10T06:45:02.700Z,9.00
2019-03-10T06:48:26.826Z,9.03
2019-03-10T06:51:51.148Z,8.79
2019-03-10T06:55:14.506Z,8.85
2019-03-10T06:58:37.695Z,8.69
2019-03-10T07:02:00.789Z,8.88
2019-03-10T07:05:24.887Z,8.37
2019-03-10T07:08:48.385Z,8.77
2019-03-10T07:12:11.844Z,8.91
2019-03-10T07:15:35.199Z,9.08
2019-03-10T07:18:58.631Z,8.89
2019-03-10T07:22:22.060Z,9.12
2019-03-10T07:25:45.327Z,8.65
2019-03-10T07:29:18.201Z,8.73
2019-03-10T07:32:47.687Z,8.55
2019-03-10T07:36:39.161Z,8.74
2019-03-10T07:40:20.968Z,8.70
2019-03-10T07:44:15.695Z,8.48
2019-03-10T07:47:58.500Z,8.81
2019-03-10T07:51:38.348Z,8.52
2019-03-10T07:55:21.055Z,8.73
2019-03-10T07:59:18.762Z,8.94
2019-03-10T08:03:04.209Z,8.84
2019-03-10T08:06:56.251Z,8.96
2019-03-10T08:10:34.126Z,9.11
2019-03-10T08:14:22.878Z,8.63
2019-03-10T08:18:05.774Z,9.00
2019-03-10T08:21:47.073Z,8.59
2019-03-10T08:25:44.631Z,8.89
2019-03-10T08:29:39.264Z,9.11
2019-03-10T08:33:17.653Z,8.89
2019-03-10T08:36:58.998Z,9.04
2019-03-10T08:40:37.283Z,9.31
2019-03-10T08:44:29.498Z,9.47
2019-03-10T08:48:14.082Z,9.78
2019-03-10T08:51:50.452Z,9.63
2019-03-10T08:55:36.028Z,9.77
2019-03-10T08:59:17.463Z,9.88
2019-03-10T09:02:51.140Z,9.95
2019-03-10T09:06:38.962Z,10.13
2019-03-10T09:10:19.979Z,10.24
2019-03-10T09:13:56.373Z,10.18
2019-03-10T09:17:29.126Z,10.24
2019-03-10T09:21:10.371Z,10.05
2019-03-10T09:25:11.090Z,10.11
2019-03-10T09:28:47.225Z,10.26
2019-03-10T09:32:36.800Z,10.68
2019-03-10T09:36:19.217Z,11.29
2019-03-10T09:40:14.152Z,11.11
2019-03-10T09:43:55.207Z,11.35
2019-03-10T09:47:38.235Z,11.44
2019-03-10T09:51:27.092Z,11.00
2019-03-10T09:55:08.485Z,11.13
2019-03-10T09:58:46.546Z,11.13
2019-03-10T10:02:19.787Z,11.34
2019-03-10T10:05:51.608Z,11.34
2019-03-10T10:09:49.510Z,12.25
2019-03-10T10:13:34.962Z,12.25
2019-03-10T10:17:13.777Z,12.64
2019-03-10T10:21:02.447Z,12.62
2019-03-10T10:24:48.210Z,12.78
2019-03-10T10:28:30.915Z,12.60
2019-03-10T10:32:05.487Z,13.47
2019-03-10T10:35:58.596Z,14.73
2019-03-10T10:39:36.128Z,14.35
2019-03-10T10:43:20.085Z,14.83
2019-03-10T10:47:03.486Z,14.01
2019-03-10T10:50:55.252Z,15.36
2019-03-10T10:54:36.014Z,16.49
2019-03-10T10:58:09.378Z,18.20
2019-03-10T11:02:01.170Z,16.97
2019-03-10T11:05:43.885Z,16.07
2019-03-10T11:09:26.609Z,15.56
2019-03-10T11:13:07.622Z,15.44
2019-03-10T11:16:49.115Z,15.50
2019-03-10T11:20:30.715Z,14.73
2019-03-10T11:24:11.766Z,14.16
2019-03-10T11:27:49.885Z,12.65
2019-03-10T11:31:35.146Z,12.56
2019-03-10T11:35:35.948Z,13.09
2019-03-10T11:39:21.528Z,12.56
2019-03-10T11:42:58.810Z,12.56
2019-03-10T11:46:47.348Z,12.49
2019-03-10T11:50:36.163Z,12.47
2019-03-10T11:54:28.237Z,12.12
2019-03-10T11:58:22.896Z,12.36
2019-03-10T12:01:51.216Z,11.82
2019-03-10T12:05:34.304Z,11.92
2019-03-10T12:09:15.879Z,12.13
2019-03-10T12:12:39.161Z,11.98
2019-03-10T12:16:02.718Z,11.88
2019-03-10T12:19:26.139Z,11.80
2019-03-10T12:22:49.772Z,11.84
2019-03-10T12:26:12.950Z,12.29
2019-03-10T12:29:36.057Z,12.24
2019-03-10T12:32:59.512Z,11.97
2019-03-10T12:36:22.834Z,12.06
2019-03-10T12:39:46.466Z,12.44
2019-03-10T12:43:10.012Z,12.54
2019-03-10T12:46:33.226Z,11.94
2019-03-10T12:49:56.511Z,11.39
2019-03-10T12:53:19.617Z,11.41
2019-03-10T12:56:42.801Z,11.42
2019-03-10T13:00:07.332Z,11.05
2019-03-10T13:03:32.188Z,10.91
2019-03-10T13:06:55.303Z,10.96
2019-03-10T13:10:18.608Z,11.24
2019-03-10T13:13:41.985Z,11.53
2019-03-10T13:17:05.167Z,11.99
2019-03-10T13:20:28.825Z,11.94
2019-03-10T13:23:55.095Z,11.54
2019-03-10T13:27:19.456Z,11.58
2019-03-10T13:30:42.952Z,11.16
2019-03-10T13:34:09.823Z,11.03
2019-03-10T13:37:33.518Z,11.17
2019-03-10T13:40:56.919Z,11.19
2019-03-10T13:44:21.628Z,11.28
2019-03-10T13:47:45.894Z,11.40
2019-03-10T13:51:09.233Z,12.03
2019-03-10T13:54:32.804Z,11.65
2019-03-10T13:57:56.031Z,11.56
2019-03-10T14:01:19.351Z,11.92
2019-03-10T14:04:43.176Z,11.89
2019-03-10T14:08:08.423Z,11.33
2019-03-10T14:11:32.218Z,11.12
2019-03-10T14:14:55.665Z,11.27
2019-03-10T14:18:19.179Z,11.14
2019-03-10T14:21:44.676Z,11.34
2019-03-10T14:25:10.566Z,11.24
2019-03-10T14:28:34.262Z,10.95
2019-03-10T14:31:57.932Z,10.36
2019-03-10T14:35:21.737Z,10.71
2019-03-10T14:38:45.389Z,10.66
2019-03-10T14:42:08.782Z,10.51
2019-03-10T14:45:31.939Z,10.53
2019-03-10T14:48:55.206Z,10.49
2019-03-10T14:52:27.321Z,10.45
2019-03-10T14:55:50.508Z,10.32
2019-03-10T14:59:13.742Z,10.85
2019-03-10T15:02:36.999Z,10.21
2019-03-10T15:06:00.226Z,10.17
2019-03-10T15:09:24.502Z,10.08
2019-03-10T15:12:47.974Z,9.93
2019-03-10T15:16:11.155Z,10.48
2019-03-10T15:19:35.707Z,10.50
2019-03-10T15:22:59.049Z,10.38
2019-03-10T15:26:22.331Z,10.53
2019-03-10T15:29:45.478Z,10.30
2019-03-10T15:33:08.610Z,10.50
2019-03-10T15:36:32.795Z,10.36
2019-03-10T15:39:56.780Z,10.18
2019-03-10T15:43:20.220Z,9.87
2019-03-10T15:46:43.400Z,9.75
2019-03-10T15:50:12.084Z,9.99
2019-03-10T15:53:35.285Z,9.96
2019-03-10T15:56:58.403Z,9.96
2019-03-10T16:00:22.151Z,10.28
2019-03-10T16:03:45.690Z,10.82
2019-03-10T16:07:08.907Z,10.02
2019-03-10T16:10:32.184Z,9.56
2019-03-10T16:13:55.327Z,9.82
2019-03-10T16:17:18.594Z,9.32
2019-03-10T16:20:41.742Z,8.88
2019-03-10T16:24:05.319Z,8.36
2019-03-10T16:27:28.502Z,8.34
2019-03-10T16:30:52.013Z,8.30
2019-03-10T16:34:15.633Z,8.28
2019-03-10T16:37:38.782Z,8.29
2019-03-10T16:41:02.881Z,8.02
2019-03-10T16:44:25.988Z,8.32
2019-03-10T16:47:50.431Z,8.36
2019-03-10T16:51:13.709Z,8.19
2019-03-10T16:54:36.923Z,8.51
2019-03-10T16:58:00.292Z,8.22
2019-03-10T17:01:23.533Z,8.15
2019-03-10T17:04:46.658Z,8.23
2019-03-10T17:08:10.211Z,8.31
2019-03-10T17:11:33.681Z,8.62
2019-03-10T17:14:56.780Z,8.25
2019-03-10T17:18:19.879Z,8.22
2019-03-10T17:21:43.158Z,8.27
2019-03-10T17:25:06.524Z,8.42
2019-03-10T17:28:29.824Z,8.50
2019-03-10T17:31:53.352Z,8.03
2019-03-10T17:35:17.064Z,8.04
2019-03-10T17:38:40.231Z,8.24
2019-03-10T17:42:03.366Z,8.25
2019-03-10T17:45:27.584Z,7.87
2019-03-10T17:48:51.104Z,8.16
2019-03-10T17:52:14.874Z,7.87
2019-03-10T17:55:38.582Z,7.89
2019-03-10T17:59:01.917Z,7.73
2019-03-10T18:02:27.029Z,7.71
2019-03-10T18:05:50.385Z,8.04
2019-03-10T18:09:13.637Z,8.36
2019-03-10T18:12:36.908Z,7.87
2019-03-10T18:16:00.477Z,7.93
2019-03-10T18:19:24.012Z,8.02
2019-03-10T18:22:47.326Z,8.19
2019-03-10T18:26:10.567Z,7.91
2019-03-10T18:29:33.726Z,7.98
2019-03-10T18:32:57.080Z,8.15
2019-03-10T18:36:20.397Z,7.80
2019-03-10T18:39:43.987Z,8.04
2019-03-10T18:43:07.342Z,8.35
2019-03-10T18:46:30.563Z,8.06
2019-03-10T18:49:55.449Z,7.79
2019-03-10T18:53:18.889Z,8.02
2019-03-10T18:56:42.137Z,7.84
2019-03-10T19:00:07.183Z,7.84
2019-03-10T19:03:31.004Z,7.73
2019-03-10T19:06:54.250Z,8.17
2019-03-10T19:10:17.558Z,8.09
2019-03-10T19:13:41.173Z,7.85
2019-03-10T19:17:04.797Z,7.57
2019-03-10T19:20:27.941Z,7.72
2019-03-10T19:23:51.236Z,7.82
2019-03-10T19:27:15.441Z,7.77
2019-03-10T19:30:39.891Z,7.59
2019-03-10T19:34:03.892Z,7.73
2019-03-10T19:37:27.874Z,7.66
2019-03-10T19:40:54.220Z,7.79
2019-03-10T19:44:17.926Z,8.10
2019-03-10T19:47:41.310Z,8.23
2019-03-10T19:51:04.847Z,8.03
2019-03-10T19:54:28.172Z,7.40
2019-03-10T19:57:51.347Z,7.11
2019-03-10T20:01:15.205Z,6.88
2019-03-10T20:04:38.427Z,6.19
2019-03-10T20:08:03.251Z,4.70
2019-03-10T20:11:26.675Z,4.98
2019-03-10T20:14:50.365Z,5.23
2019-03-10T20:18:14.191Z,5.30
2019-03-10T20:21:37.522Z,5.32
2019-03-10T20:25:01.028Z,5.45
2019-03-10T20:28:24.464Z,5.37
2019-03-10T20:31:47.743Z,5.37
2019-03-10T20:35:11.261Z,5.39
2019-03-10T20:38:34.784Z,5.28
2019-03-10T20:42:05.196Z,4.70
2019-03-10T20:45:32.043Z,4.55
2019-03-10T20:48:55.400Z,4.67
2019-03-10T20:52:18.619Z,4.49
2019-03-10T20:55:42.529Z,4.26
2019-03-10T20:59:09.439Z,4.22
2019-03-10T21:02:33.044Z,4.35
2019-03-10T21:05:56.410Z,4.47
2019-03-10T21:09:19.611Z,4.37
2019-03-10T21:12:43.040Z,4.53
2019-03-10T21:16:06.596Z,4.58
2019-03-10T21:19:29.736Z,4.71
2019-03-10T21:22:53.157Z,4.54
2019-03-10T21:26:19.501Z,4.48
2019-03-10T21:29:44.070Z,4.64
2019-03-10T21:33:07.253Z,4.54
2019-03-10T21:36:30.547Z,4.77
2019-03-10T21:39:53.775Z,5.07
2019-03-10T21:43:16.921Z,4.68
2019-03-10T21:46:40.304Z,4.91
2019-03-10T21:50:04.661Z,4.92
2019-03-10T21:53:28.278Z,4.96
2019-03-10T21:56:52.872Z,5.11
2019-03-10T22:00:16.136Z,5.04
2019-03-10T22:03:39.338Z,5.20
2019-03-10T22:07:02.951Z,5.31
2019-03-10T22:10:27.993Z,5.28
2019-03-10T22:13:51.673Z,5.14
2019-03-10T22:17:14.876Z,5.37
2019-03-10T22:20:38.120Z,5.26
2019-03-10T22:24:03.192Z,5.20
2019-03-10T22:27:26.561Z,5.70
2019-03-10T22:30:49.671Z,5.47
2019-03-10T22:34:13.765Z,5.31
2019-03-10T22:37:37.583Z,5.38
2019-03-10T22:41:01.185Z,5.54
2019-03-10T22:44:26.478Z,5.33
2019-03-10T22:47:49.771Z,5.94
2019-03-10T22:51:12.900Z,5.99
2019-03-10T22:54:36.083Z,5.91
2019-03-10T22:57:59.534Z,6.06
2019-03-10T23:01:22.767Z,5.98
2019-03-10T23:04:46.284Z,6.03
2019-03-10T23:08:10.148Z,6.23
2019-03-10T23:11:33.418Z,6.33
2019-03-10T23:14:56.748Z,6.54
2019-03-10T23:18:20.059Z,6.80
2019-03-10T23:21:43.122Z,6.99
2019-03-10T23:25:06.722Z,6.46
2019-03-10T23:28:30.254Z,6.88
2019-03-10T23:31:53.618Z,6.91
2019-03-10T23:35:16.734Z,6.64
2019-03-10T23:38:39.854Z,6.81
2019-03-10T23:42:02.922Z,6.88
2019-03-10T23:45:26.179Z,6.73
2019-03-10T23:48:49.314Z,6.89
2019-03-10T23:52:12.406Z,6.95
2019-03-10T23:55:35.835Z,6.83
2019-03-10T23:58:58.978Z,6.68
